Time;durP1;ratioP1;P1;durP2;ratioP2;P2;SDS_P1;SDS_P2;PMS_P1;PMS_P2;Temp;Humidity;BMP_temperature;BMP_pressure;BME280_temperature;BME280_humidity;BME280_pressure;Samples;Min_cycle;Max_cycle;Signal;HPM_P1;HPM_P2
2023/09/01 00:01:57;;;;;;;3.92;0.60;;;16.60;99.90;;;;;;4133292;28;20754;-92
2023/09/01 00:04:07;;;;;;;1.10;0.45;;;16.80;99.90;;;;;;4134221;28;20173;-92
2023/09/01 00:06:12;;;;;;;2.15;0.80;;;16.80;99.90;;;;;;4149311;28;20177;-92
2023/09/01 00:08:13;;;;;;;0.80;0.50;;;16.90;99.90;;;;;;4133032;28;20181;-91
2023/09/01 00:10:14;;;;;;;0.80;0.40;;;16.90;99.90;;;;;;4132691;28;20595;-92
2023/09/01 00:12:14;;;;;;;0.35;0.30;;;16.70;99.90;;;;;;4132349;28;20205;-92
2023/09/01 00:14:15;;;;;;;0.90;0.50;;;16.80;99.90;;;;;;4132681;28;20184;-92
2023/09/01 00:16:16;;;;;;;1.95;0.60;;;16.70;99.90;;;;;;4132658;28;20185;-91
2023/09/01 00:18:17;;;;;;;1.17;0.57;;;16.70;99.90;;;;;;4132462;28;20283;-93
2023/09/01 00:20:18;;;;;;;1.10;0.55;;;16.60;99.90;;;;;;4132855;28;20360;-91
2023/09/01 00:22:18;;;;;;;0.70;0.50;;;16.70;99.90;;;;;;4132513;28;20197;-94
2023/09/01 00:24:19;;;;;;;0.60;0.40;;;16.60;99.90;;;;;;4148923;28;20176;-91
2023/09/01 00:26:20;;;;;;;1.48;0.70;;;16.60;99.90;;;;;;4132548;28;20177;-94
2023/09/01 00:28:23;;;;;;;0.85;0.50;;;16.70;99.90;;;;;;4132715;28;20559;-92
2023/09/01 00:30:27;;;;;;;0.47;0.40;;;16.70;99.90;;;;;;4132351;28;20178;-92
2023/09/01 00:32:28;;;;;;;0.88;0.32;;;16.70;99.90;;;;;;4132280;28;20652;-92
2023/09/01 00:34:31;;;;;;;5.45;0.60;;;16.80;99.90;;;;;;4148862;28;20179;-95
2023/09/01 00:36:32;;;;;;;0.65;0.35;;;16.70;99.90;;;;;;4132430;28;20216;-91
2023/09/01 00:38:32;;;;;;;1.38;0.50;;;16.70;99.90;;;;;;4148888;28;20204;-92
2023/09/01 00:40:33;;;;;;;0.60;0.38;;;16.60;99.90;;;;;;4132621;28;20692;-92
2023/09/01 00:42:34;;;;;;;1.00;0.65;;;16.60;99.90;;;;;;4132282;28;20197;-92
2023/09/01 00:44:35;;;;;;;1.00;0.43;;;16.50;99.90;;;;;;4148733;28;20219;-92
2023/09/01 00:46:35;;;;;;;0.50;0.32;;;16.50;99.90;;;;;;4132099;28;20209;-95
2023/09/01 00:48:37;;;;;;;1.35;0.68;;;16.60;99.90;;;;;;4148541;28;20173;-92
2023/09/01 00:50:40;;;;;;;0.55;0.30;;;16.60;99.90;;;;;;4132646;28;20235;-93
2023/09/01 00:52:42;;;;;;;0.93;0.60;;;16.70;99.90;;;;;;4132380;28;20200;-91
2023/09/01 00:54:43;;;;;;;0.30;0.30;;;16.70;99.90;;;;;;4132156;28;20185;-92
2023/09/01 00:56:44;;;;;;;0.50;0.47;;;16.70;99.90;;;;;;4148609;28;20646;-91
2023/09/01 00:58:45;;;;;;;0.95;0.45;;;16.80;99.90;;;;;;4132305;28;20186;-92
2023/09/01 01:00:46;;;;;;;0.95;0.35;;;16.70;99.90;;;;;;4132176;28;20174;-93
2023/09/01 01:02:47;;;;;;;0.55;0.30;;;16.80;99.90;;;;;;4148592;28;20540;-92
2023/09/01 01:04:48;;;;;;;1.17;0.70;;;16.60;99.90;;;;;;4148552;28;20165;-92
2023/09/01 01:07:14;;;;;;;0.55;0.52;;;16.70;99.90;;;;;;4132232;28;20256;-93
2023/09/01 01:09:27;;;;;;;0.65;0.32;;;16.70;99.90;;;;;;4132285;28;20718;-92
2023/09/01 01:11:38;;;;;;;0.73;0.40;;;16.60;99.90;;;;;;4131624;28;20174;-92
2023/09/01 01:13:46;;;;;;;0.70;0.40;;;16.60;99.90;;;;;;4131976;28;20208;-92
2023/09/01 01:15:49;;;;;;;0.55;0.40;;;16.80;99.90;;;;;;4148238;28;20176;-91
2023/09/01 01:17:51;;;;;;;0.82;0.45;;;16.90;99.90;;;;;;4132686;28;20213;-91
2023/09/01 01:20:02;;;;;;;0.50;0.30;;;17.00;99.90;;;;;;4132054;28;20216;-91
2023/09/01 01:22:05;;;;;;;1.10;0.60;;;17.00;99.90;;;;;;4131805;28;20192;-92
2023/09/01 01:24:07;;;;;;;2.88;0.47;;;16.90;99.90;;;;;;4131984;28;20675;-92
2023/09/01 01:26:12;;;;;;;1.05;0.57;;;16.80;99.90;;;;;;4148320;28;20172;-94
2023/09/01 01:28:15;;;;;;;1.42;0.45;;;16.80;99.90;;;;;;4132046;28;20216;-91
2023/09/01 01:30:15;;;;;;;0.77;0.50;;;16.80;99.90;;;;;;4131878;28;20173;-92
2023/09/01 01:32:16;;;;;;;2.67;0.98;;;16.80;99.90;;;;;;4148057;28;20196;-94
2023/09/01 01:34:29;;;;;;;0.60;0.52;;;16.70;99.90;;;;;;4131769;28;20189;-92
2023/09/01 01:36:46;;;;;;;1.15;0.60;;;16.70;99.90;;;;;;4131895;28;20165;-92
2023/09/01 01:39:05;;;;;;;1.60;0.88;;;16.80;99.90;;;;;;4131889;28;20184;-92
2023/09/01 01:41:13;;;;;;;0.65;0.50;;;17.00;99.90;;;;;;4131741;28;20185;-91
2023/09/01 01:43:18;;;;;;;0.90;0.55;;;17.00;99.90;;;;;;4131519;28;20244;-92
2023/09/01 01:45:22;;;;;;;1.77;0.68;;;17.00;99.90;;;;;;4131859;28;20173;-93
2023/09/01 01:47:23;;;;;;;1.23;0.70;;;17.00;99.90;;;;;;4131929;28;20228;-92
2023/09/01 01:49:27;;;;;;;1.42;0.80;;;17.10;99.90;;;;;;4131994;28;20710;-91
2023/09/01 01:51:28;;;;;;;1.23;0.70;;;17.10;99.90;;;;;;4131955;28;20254;-92
2023/09/01 01:53:29;;;;;;;1.08;0.70;;;17.00;99.90;;;;;;4148286;28;20235;-91
2023/09/01 01:55:30;;;;;;;2.10;0.70;;;17.20;99.90;;;;;;4131729;28;20162;-91
2023/09/01 01:57:30;;;;;;;1.35;0.77;;;17.20;99.90;;;;;;4131442;28;20189;-93
2023/09/01 01:59:31;;;;;;;1.50;0.88;;;17.20;99.90;;;;;;4131810;28;20174;-91
2023/09/01 02:01:32;;;;;;;1.30;0.93;;;17.20;99.90;;;;;;4131675;28;20174;-91
2023/09/01 02:03:34;;;;;;;0.95;0.77;;;17.20;99.90;;;;;;4131757;28;20173;-91
2023/09/01 02:05:35;;;;;;;1.05;0.80;;;17.30;99.90;;;;;;4147796;28;20268;-91
2023/09/01 02:07:35;;;;;;;0.90;0.40;;;17.30;99.90;;;;;;4147687;28;20764;-91
2023/09/01 02:09:36;;;;;;;2.78;0.90;;;17.30;99.90;;;;;;4131534;28;20625;-91
2023/09/01 02:11:37;;;;;;;1.30;0.70;;;17.20;99.90;;;;;;4131232;28;20210;-91
2023/09/01 02:13:38;;;;;;;1.15;0.63;;;17.20;99.90;;;;;;4147692;28;20260;-90
2023/09/01 02:15:39;;;;;;;1.42;0.85;;;17.20;99.90;;;;;;4131500;28;20173;-91
2023/09/01 02:17:39;;;;;;;2.00;1.02;;;17.20;99.90;;;;;;4131455;28;20212;-91
2023/09/01 02:19:40;;;;;;;0.93;0.60;;;17.30;99.90;;;;;;4131419;28;20180;-91
2023/09/01 02:21:41;;;;;;;1.92;0.77;;;17.40;99.90;;;;;;4131154;28;20196;-90
2023/09/01 02:23:42;;;;;;;1.70;1.08;;;17.40;99.90;;;;;;4133805;28;20188;-91
2023/09/01 02:25:46;;;;;;;1.65;0.90;;;17.40;99.90;;;;;;4134548;28;20168;-92
2023/09/01 02:27:46;;;;;;;0.98;0.70;;;17.40;99.90;;;;;;4134249;28;20209;-91
2023/09/01 02:29:47;;;;;;;1.48;0.73;;;17.40;99.90;;;;;;4150302;28;20188;-90
2023/09/01 02:31:48;;;;;;;1.20;0.73;;;17.40;99.90;;;;;;4134188;28;20731;-91
2023/09/01 02:33:49;;;;;;;1.20;0.80;;;17.50;99.90;;;;;;4134232;28;20210;-91
2023/09/01 02:35:49;;;;;;;1.83;1.00;;;17.40;99.90;;;;;;4133921;28;20260;-91
2023/09/01 02:37:50;;;;;;;1.75;0.90;;;17.40;99.90;;;;;;4134036;28;20197;-89
2023/09/01 02:39:51;;;;;;;1.25;0.70;;;17.30;99.90;;;;;;4134183;28;20184;-91
2023/09/01 02:41:52;;;;;;;9.15;1.70;;;17.20;99.90;;;;;;4150122;28;20283;-91
2023/09/01 02:43:54;;;;;;;1.25;0.73;;;17.20;99.90;;;;;;4134178;28;20169;-91
2023/09/01 02:45:54;;;;;;;1.30;0.85;;;17.20;99.90;;;;;;4134291;28;20284;-91
2023/09/01 02:47:56;;;;;;;0.80;0.63;;;17.30;99.90;;;;;;4134106;28;20213;-91
2023/09/01 02:49:57;;;;;;;0.63;0.55;;;17.40;99.90;;;;;;4134273;28;20185;-91
2023/09/01 02:51:58;;;;;;;1.17;0.90;;;17.60;99.90;;;;;;4133960;28;20610;-90
2023/09/01 02:53:59;;;;;;;1.42;0.80;;;17.70;99.90;;;;;;4133847;28;20188;-91
2023/09/01 02:56:00;;;;;;;1.65;0.98;;;17.50;99.90;;;;;;4134334;28;20173;-91
2023/09/01 02:58:00;;;;;;;7.60;0.90;;;17.40;99.90;;;;;;4149778;28;20184;-91
2023/09/01 03:00:14;;;;;;;2.38;1.23;;;17.30;99.90;;;;;;4133956;28;20670;-93
2023/09/01 03:02:15;;;;;;;1.77;1.05;;;17.40;99.90;;;;;;4149886;28;20196;-94
2023/09/01 03:04:16;;;;;;;2.00;1.02;;;17.40;99.90;;;;;;4133762;28;20735;-91
2023/09/01 03:06:16;;;;;;;1.73;1.00;;;17.30;99.90;;;;;;4133744;28;20174;-92
2023/09/01 03:08:17;;;;;;;1.45;0.77;;;17.40;99.90;;;;;;4133544;28;20185;-95
2023/09/01 03:10:19;;;;;;;1.15;0.70;;;17.50;99.90;;;;;;4133641;28;20178;-93
2023/09/01 03:12:19;;;;;;;1.33;1.13;;;17.50;99.90;;;;;;4149681;28;20204;-91
2023/09/01 03:14:21;;;;;;;2.33;1.10;;;17.50;99.90;;;;;;4133537;28;20172;-89
2023/09/01 03:16:22;;;;;;;2.65;1.08;;;17.50;99.90;;;;;;4133405;28;20170;-90
2023/09/01 03:18:23;;;;;;;1.73;0.82;;;17.60;99.90;;;;;;4133189;28;20237;-89
2023/09/01 03:20:24;;;;;;;1.27;0.80;;;17.50;99.90;;;;;;4149309;28;20212;-90
2023/09/01 03:22:25;;;;;;;1.80;1.00;;;17.50;99.90;;;;;;4149483;28;20650;-89
2023/09/01 03:24:27;;;;;;;1.50;0.82;;;17.60;99.90;;;;;;4133153;28;20224;-89
2023/09/01 03:26:30;;;;;;;1.88;0.80;;;17.70;99.90;;;;;;4149621;28;20176;-93
2023/09/01 03:28:34;;;;;;;1.90;0.95;;;17.70;99.90;;;;;;4149307;28;20657;-93
2023/09/01 03:30:36;;;;;;;2.58;1.10;;;17.60;99.90;;;;;;4149556;28;20180;-90
2023/09/01 03:32:37;;;;;;;1.85;1.27;;;17.60;99.90;;;;;;4133401;28;20207;-89
2023/09/01 03:34:38;;;;;;;2.42;1.30;;;17.70;99.90;;;;;;4149097;28;20173;-89
2023/09/01 03:36:39;;;;;;;1.42;1.02;;;17.70;99.90;;;;;;4149579;28;20169;-89
2023/09/01 03:38:40;;;;;;;2.15;1.35;;;17.80;99.90;;;;;;4133252;28;20185;-89
2023/09/01 03:40:42;;;;;;;3.08;1.33;;;17.80;99.90;;;;;;4149504;28;20180;-89
2023/09/01 03:42:43;;;;;;;1.45;0.73;;;17.70;99.90;;;;;;4133184;28;20237;-89
2023/09/01 03:44:44;;;;;;;2.08;1.20;;;17.70;99.90;;;;;;4133137;28;20169;-90
2023/09/01 03:46:44;;;;;;;2.35;1.00;;;17.70;99.90;;;;;;4149233;28;20212;-90
2023/09/01 03:48:45;;;;;;;1.65;0.80;;;17.70;99.90;;;;;;4149366;28;20177;-91
2023/09/01 03:51:08;;;;;;;1.75;1.23;;;17.70;99.90;;;;;;4149143;28;20173;-91
2023/09/01 03:53:09;;;;;;;1.25;0.88;;;17.70;99.90;;;;;;4132872;28;20224;-90
2023/09/01 03:55:10;;;;;;;2.65;1.40;;;17.80;99.90;;;;;;4132780;28;20170;-91
2023/09/01 03:57:11;;;;;;;3.50;1.55;;;17.80;99.90;;;;;;4132808;28;20642;-95
2023/09/01 03:59:12;;;;;;;2.45;1.00;;;17.80;99.90;;;;;;4132975;28;20595;-91
2023/09/01 04:01:12;;;;;;;1.40;1.00;;;17.90;99.90;;;;;;4132775;28;20209;-91
2023/09/01 04:03:13;;;;;;;2.78;1.20;;;17.80;99.90;;;;;;4148837;28;20193;-90
2023/09/01 04:05:14;;;;;;;2.97;1.30;;;17.90;99.90;;;;;;4132671;28;20660;-91
2023/09/01 04:07:15;;;;;;;2.22;0.90;;;17.90;99.90;;;;;;4132649;28;20212;-90
2023/09/01 04:09:15;;;;;;;2.50;1.10;;;18.00;99.90;;;;;;4132774;28;20173;-91
2023/09/01 04:11:16;;;;;;;1.33;0.90;;;17.90;99.90;;;;;;4148953;28;20211;-95
2023/09/01 04:13:17;;;;;;;2.42;1.30;;;17.90;99.90;;;;;;4132566;28;20206;-91
2023/09/01 04:15:19;;;;;;;1.55;0.95;;;17.90;99.90;;;;;;4149152;28;20586;-96
2023/09/01 04:17:20;;;;;;;1.17;0.80;;;18.00;99.90;;;;;;4132511;28;20236;-91
2023/09/01 04:19:21;;;;;;;1.65;0.98;;;18.00;99.90;;;;;;4148808;28;20628;-92
2023/09/01 04:21:23;;;;;;;1.20;0.90;;;18.00;99.90;;;;;;4132445;28;20158;-90
2023/09/01 04:23:24;;;;;;;1.15;0.73;;;18.10;99.90;;;;;;4148860;28;20220;-90
2023/09/01 04:25:24;;;;;;;1.17;0.70;;;18.10;99.90;;;;;;4132417;28;20173;-91
2023/09/01 04:27:25;;;;;;;2.03;0.90;;;18.10;99.90;;;;;;4148642;28;20212;-91
2023/09/01 04:29:26;;;;;;;1.63;1.00;;;18.20;99.90;;;;;;4148897;28;20240;-90
2023/09/01 04:31:28;;;;;;;0.85;0.68;;;18.20;99.90;;;;;;4148490;28;20180;-91
2023/09/01 04:33:31;;;;;;;2.05;0.70;;;18.10;99.90;;;;;;4132508;28;20166;-95
2023/09/01 04:35:35;;;;;;;1.40;0.60;;;18.10;99.90;;;;;;4148825;28;20168;-92
2023/09/01 04:37:36;;;;;;;1.92;0.60;;;18.20;99.90;;;;;;4148575;28;20631;-91
2023/09/01 04:39:38;;;;;;;4.93;1.25;;;18.10;99.90;;;;;;4132612;28;20173;-90
2023/09/01 04:41:38;;;;;;;2.00;0.95;;;18.10;99.90;;;;;;4149213;28;20272;-90
2023/09/01 04:43:39;;;;;;;1.73;0.90;;;18.20;99.90;;;;;;4132363;28;20173;-90
2023/09/01 04:45:45;;;;;;;1.35;0.85;;;18.20;99.90;;;;;;4131539;28;20165;-90
2023/09/01 04:47:47;;;;;;;1.30;0.82;;;18.30;99.90;;;;;;4132092;28;20220;-91
2023/09/01 04:49:48;;;;;;;2.90;1.30;;;18.40;99.90;;;;;;4148402;28;20169;-94
2023/09/01 04:51:50;;;;;;;1.17;0.98;;;18.40;99.90;;;;;;4132187;28;20604;-91
2023/09/01 04:53:52;;;;;;;1.73;1.02;;;18.40;99.90;;;;;;4132326;28;20652;-91
2023/09/01 04:55:53;;;;;;;1.95;0.90;;;18.40;99.90;;;;;;4148216;28;20168;-94
2023/09/01 04:57:54;;;;;;;1.45;0.98;;;18.40;99.90;;;;;;4131883;28;20174;-90
2023/09/01 04:59:55;;;;;;;2.30;1.10;;;18.40;99.90;;;;;;4148172;28;20181;-91
2023/09/01 05:01:55;;;;;;;1.27;0.82;;;18.40;99.90;;;;;;4131756;28;20272;-92
2023/09/01 05:03:56;;;;;;;2.40;0.93;;;18.50;99.90;;;;;;4148027;28;20555;-94
2023/09/01 05:05:57;;;;;;;3.58;1.08;;;18.50;99.90;;;;;;4132136;28;20208;-90
2023/09/01 05:07:58;;;;;;;1.20;0.80;;;18.40;99.90;;;;;;4132111;28;20279;-92
2023/09/01 05:10:00;;;;;;;2.05;0.88;;;18.40;99.90;;;;;;4148384;28;20200;-91
2023/09/01 05:12:00;;;;;;;1.25;0.80;;;18.40;99.90;;;;;;4131936;28;20198;-90
2023/09/01 05:14:01;;;;;;;1.38;0.85;;;18.40;99.90;;;;;;4148348;28;20173;-94
2023/09/01 05:16:03;;;;;;;2.05;1.17;;;18.40;99.90;;;;;;4131878;28;20166;-90
2023/09/01 05:18:04;;;;;;;2.92;1.20;;;18.40;99.90;;;;;;4131876;28;20193;-90
2023/09/01 05:20:09;;;;;;;2.25;1.40;;;18.30;99.90;;;;;;4131902;28;20188;-90
2023/09/01 05:22:10;;;;;;;2.13;0.90;;;18.30;99.90;;;;;;4131935;28;20337;-90
2023/09/01 05:24:10;;;;;;;1.30;0.80;;;18.30;99.90;;;;;;4131720;28;20608;-89
2023/09/01 05:26:11;;;;;;;5.40;1.00;;;18.30;99.90;;;;;;4131905;28;20177;-90
2023/09/01 05:28:12;;;;;;;1.83;0.98;;;18.30;99.90;;;;;;4147986;28;20227;-90
2023/09/01 05:30:13;;;;;;;2.35;1.48;;;18.20;99.90;;;;;;4132031;28;20177;-90
2023/09/01 05:32:15;;;;;;;2.95;1.10;;;18.30;99.90;;;;;;4148421;28;20330;-90
2023/09/01 05:34:15;;;;;;;1.75;0.90;;;18.30;99.90;;;;;;4132303;28;20655;-90
2023/09/01 05:36:16;;;;;;;2.60;0.82;;;18.30;99.90;;;;;;4148232;28;20172;-90
2023/09/01 05:38:17;;;;;;;2.30;0.90;;;18.40;99.90;;;;;;4148270;28;20308;-90
2023/09/01 05:40:18;;;;;;;3.20;1.13;;;18.40;99.90;;;;;;4131770;28;20174;-90
2023/09/01 05:42:19;;;;;;;1.42;0.88;;;18.30;99.90;;;;;;4131502;28;20207;-90
2023/09/01 05:44:20;;;;;;;1.80;1.25;;;18.40;99.90;;;;;;4131424;28;20632;-91
2023/09/01 05:46:21;;;;;;;1.90;0.98;;;18.50;99.90;;;;;;4131621;28;20224;-90
2023/09/01 05:48:22;;;;;;;1.30;0.88;;;18.60;99.90;;;;;;4131761;28;20729;-91
2023/09/01 05:50:23;;;;;;;1.55;0.82;;;18.60;99.90;;;;;;4131800;28;20178;-90
2023/09/01 05:52:25;;;;;;;2.10;0.85;;;18.60;99.90;;;;;;4131679;28;20295;-92
2023/09/01 05:54:27;;;;;;;1.10;0.50;;;18.60;99.90;;;;;;4131672;28;20178;-91
2023/09/01 05:56:28;;;;;;;3.45;1.38;;;18.60;99.90;;;;;;4132428;28;20177;-92
2023/09/01 05:58:29;;;;;;;0.98;0.63;;;18.60;99.90;;;;;;4151064;28;20180;-92
2023/09/01 06:00:30;;;;;;;0.93;0.52;;;18.70;99.90;;;;;;4150873;28;20161;-91
2023/09/01 06:02:31;;;;;;;2.28;1.20;;;18.80;99.90;;;;;;4150755;28;20308;-92
2023/09/01 06:04:31;;;;;;;1.05;0.75;;;18.80;99.90;;;;;;4150598;28;20169;-91
2023/09/01 06:06:34;;;;;;;1.33;0.82;;;18.80;99.90;;;;;;4134446;28;20184;-91
2023/09/01 06:08:35;;;;;;;2.65;0.60;;;18.80;99.90;;;;;;4134427;28;20543;-94
2023/09/01 06:10:35;;;;;;;1.30;0.80;;;18.80;99.90;;;;;;4150686;28;20164;-92
2023/09/01 06:12:36;;;;;;;1.73;0.80;;;18.90;99.90;;;;;;4134329;28;20194;-91
2023/09/01 06:14:37;;;;;;;1.98;0.80;;;18.90;99.90;;;;;;4134488;28;20659;-92
2023/09/01 06:16:38;;;;;;;1.00;0.65;;;18.90;99.90;;;;;;4134354;28;20192;-91
2023/09/01 06:18:39;;;;;;;1.67;0.80;;;18.90;99.90;;;;;;4134091;28;20593;-91
2023/09/01 06:20:39;;;;;;;1.38;0.77;;;19.00;99.90;;;;;;4150800;28;20177;-92
2023/09/01 06:22:40;;;;;;;1.42;0.80;;;19.00;99.90;;;;;;4134813;28;20229;-91
2023/09/01 06:24:41;;;;;;;2.25;0.70;;;18.90;99.90;;;;;;4152209;28;20497;-92
2023/09/01 06:26:42;;;;;;;1.42;0.80;;;18.90;99.90;;;;;;4139722;28;20240;-92
2023/09/01 06:28:43;;;;;;;2.22;0.80;;;19.00;99.90;;;;;;4153085;28;20193;-91
2023/09/01 06:30:44;;;;;;;1.50;0.45;;;18.90;99.90;;;;;;4134526;28;20168;-93
2023/09/01 06:32:45;;;;;;;1.70;0.90;;;19.00;99.90;;;;;;4150585;28;20228;-90
2023/09/01 06:34:45;;;;;;;2.45;0.88;;;19.00;99.90;;;;;;4134350;28;20170;-90
2023/09/01 06:36:46;;;;;;;1.42;0.50;;;19.00;99.90;;;;;;4150341;28;20627;-89
2023/09/01 06:38:49;;;;;;;1.77;1.00;;;19.10;99.90;;;;;;4133952;28;20182;-89
2023/09/01 06:40:49;;;;;;;1.13;0.60;;;19.10;99.90;;;;;;4150354;28;20176;-92
2023/09/01 06:42:50;;;;;;;1.40;0.70;;;19.20;99.90;;;;;;4134147;28;20205;-90
2023/09/01 06:44:51;;;;;;;0.95;0.75;;;19.20;99.90;;;;;;4150539;28;20673;-90
2023/09/01 06:46:52;;;;;;;1.75;0.73;;;19.10;99.90;;;;;;4150083;28;20212;-90
2023/09/01 06:48:52;;;;;;;1.98;0.98;;;19.00;99.90;;;;;;4149907;28;20173;-91
2023/09/01 06:50:53;;;;;;;1.08;0.65;;;19.20;99.90;;;;;;4134194;28;20543;-90
2023/09/01 06:52:54;;;;;;;1.08;0.70;;;19.10;99.90;;;;;;4133807;28;20683;-91
2023/09/01 06:54:55;;;;;;;1.80;0.60;;;19.10;99.90;;;;;;4150326;28;20173;-90
2023/09/01 06:56:55;;;;;;;0.70;0.50;;;19.00;99.90;;;;;;4150040;28;20227;-91
2023/09/01 06:58:56;;;;;;;0.52;0.35;;;19.10;99.90;;;;;;4150142;28;20656;-91
2023/09/01 07:01:05;;;;;;;0.52;0.40;;;19.20;99.90;;;;;;4133915;28;20208;-92
2023/09/01 07:03:06;;;;;;;0.57;0.40;;;19.30;99.90;;;;;;4133838;28;20626;-91
2023/09/01 07:05:07;;;;;;;0.50;0.40;;;19.20;99.90;;;;;;4133680;28;20208;-90
2023/09/01 07:07:07;;;;;;;0.10;0.10;;;19.20;99.90;;;;;;4150584;28;20276;-92
2023/09/01 07:09:08;;;;;;;0.35;0.25;;;19.10;99.90;;;;;;4134264;28;20676;-96
2023/09/01 07:11:10;;;;;;;0.25;0.08;;;18.80;99.90;;;;;;4134133;28;20177;-92
2023/09/01 07:13:11;;;;;;;0.43;0.30;;;18.70;99.90;;;;;;4133671;28;20288;-92
2023/09/01 07:15:12;;;;;;;0.15;0.13;;;18.80;99.90;;;;;;4133699;28;20655;-93
2023/09/01 07:17:13;;;;;;;0.10;0.00;;;18.60;99.90;;;;;;4149749;28;20185;-93
2023/09/01 07:19:14;;;;;;;0.08;0.08;;;18.40;99.90;;;;;;4133659;28;20192;-92
2023/09/01 07:21:15;;;;;;;0.20;0.20;;;18.50;99.90;;;;;;4167013;23;20216;-90
2023/09/01 07:23:16;;;;;;;0.10;0.00;;;18.60;99.90;;;;;;4150023;28;20203;-91
2023/09/01 07:25:16;;;;;;;0.00;0.00;;;18.70;99.90;;;;;;4165310;28;20168;-90
2023/09/01 07:27:17;;;;;;;0.00;0.00;;;18.70;99.90;;;;;;4132599;28;20267;-92
2023/09/01 07:29:18;;;;;;;0.00;0.00;;;18.60;99.90;;;;;;4148961;28;20494;-93
2023/09/01 07:31:18;;;;;;;0.20;0.10;;;18.40;99.90;;;;;;4148303;28;20531;-92
2023/09/01 07:33:19;;;;;;;0.20;0.00;;;18.50;99.90;;;;;;4149009;28;20173;-91
2023/09/01 07:35:20;;;;;;;0.00;0.00;;;18.30;99.90;;;;;;4132452;28;20209;-90
2023/09/01 07:37:21;;;;;;;0.15;0.10;;;18.30;99.90;;;;;;4148546;28;20165;-93
2023/09/01 07:39:21;;;;;;;0.20;0.00;;;18.40;99.90;;;;;;4148856;28;20211;-91
2023/09/01 07:41:22;;;;;;;0.00;0.00;;;18.40;99.90;;;;;;4148422;28;20201;-91
2023/09/01 07:43:23;;;;;;;0.47;0.00;;;18.40;99.90;;;;;;4132409;28;20188;-90
2023/09/01 07:45:24;;;;;;;0.43;0.17;;;18.40;99.90;;;;;;4148716;28;20172;-94
2023/09/01 07:47:24;;;;;;;0.55;0.03;;;18.40;99.90;;;;;;4148305;28;20220;-91
2023/09/01 07:49:25;;;;;;;0.00;0.00;;;18.50;99.90;;;;;;4148632;28;20271;-93
2023/09/01 07:51:26;;;;;;;0.00;0.00;;;18.60;99.90;;;;;;4148647;28;20571;-90
2023/09/01 07:53:27;;;;;;;0.00;0.00;;;18.60;99.90;;;;;;4148183;28;20173;-90
2023/09/01 07:55:27;;;;;;;0.00;0.00;;;18.70;99.90;;;;;;4148419;28;20176;-93
2023/09/01 07:57:28;;;;;;;0.10;0.10;;;18.80;99.90;;;;;;4148164;28;20172;-89
2023/09/01 07:59:29;;;;;;;0.00;0.00;;;18.70;99.90;;;;;;4132111;28;20268;-90
2023/09/01 08:01:30;;;;;;;0.00;0.00;;;18.80;99.90;;;;;;4132096;28;20256;-89
2023/09/01 08:03:31;;;;;;;0.10;0.00;;;18.80;99.90;;;;;;4132218;28;20320;-93
2023/09/01 08:05:32;;;;;;;0.25;0.13;;;18.70;99.90;;;;;;4148090;28;20188;-92
2023/09/01 08:07:32;;;;;;;0.20;0.10;;;18.70;99.90;;;;;;4148001;28;20213;-92
2023/09/01 08:09:33;;;;;;;0.20;0.20;;;18.50;99.90;;;;;;4148299;28;20595;-92
2023/09/01 08:11:34;;;;;;;0.10;0.03;;;18.60;99.90;;;;;;4131844;28;20184;-91
2023/09/01 08:13:35;;;;;;;0.55;0.03;;;18.90;99.90;;;;;;4148001;28;20164;-94
2023/09/01 08:15:36;;;;;;;0.00;0.00;;;19.00;99.90;;;;;;4131923;28;20649;-91
2023/09/01 08:17:37;;;;;;;0.00;0.00;;;19.20;99.90;;;;;;4131988;28;20185;-90
2023/09/01 08:19:40;;;;;;;0.10;0.10;;;19.20;99.90;;;;;;4147635;28;20204;-90
2023/09/01 08:21:41;;;;;;;4.13;0.10;;;19.40;99.90;;;;;;4147721;28;20200;-91
2023/09/01 08:23:42;;;;;;;0.05;0.00;;;19.20;99.90;;;;;;4132087;28;20213;-91
2023/09/01 08:25:42;;;;;;;0.10;0.10;;;18.90;99.90;;;;;;4131547;28;20265;-89
2023/09/01 08:27:44;;;;;;;0.00;0.00;;;18.80;99.90;;;;;;4131394;28;20248;-91
2023/09/01 08:29:45;;;;;;;0.90;0.10;;;18.90;99.90;;;;;;4131641;28;20180;-91
2023/09/01 08:31:45;;;;;;;0.00;0.00;;;18.80;99.90;;;;;;4148026;28;20208;-91
2023/09/01 08:33:46;;;;;;;0.00;0.00;;;18.70;99.90;;;;;;4131950;28;20166;-91
2023/09/01 08:35:47;;;;;;;0.20;0.08;;;18.70;99.90;;;;;;4131490;28;20177;-91
2023/09/01 08:37:48;;;;;;;0.13;0.00;;;18.80;99.90;;;;;;4148029;28;20654;-88
2023/09/01 08:39:48;;;;;;;0.17;0.00;;;18.90;99.90;;;;;;4164505;28;20234;-90
2023/09/01 08:41:52;;;;;;;0.00;0.00;;;18.90;99.90;;;;;;4131338;28;20188;-90
2023/09/01 08:43:59;;;;;;;0.00;0.00;;;19.10;99.90;;;;;;4147953;28;20223;-91
2023/09/01 08:46:02;;;;;;;0.15;0.08;;;19.30;99.90;;;;;;4147760;28;20200;-91
2023/09/01 08:48:03;;;;;;;0.75;0.10;;;19.10;99.90;;;;;;4147763;28;20706;-91
2023/09/01 08:50:04;;;;;;;0.10;0.05;;;19.00;99.90;;;;;;4147968;28;20534;-90
2023/09/01 08:52:05;;;;;;;0.00;0.00;;;19.00;99.90;;;;;;4147711;28;20316;-92
2023/09/01 08:54:07;;;;;;;0.00;0.00;;;19.10;99.90;;;;;;4147992;28;20176;-93
2023/09/01 08:56:08;;;;;;;0.00;0.00;;;19.10;99.90;;;;;;4147664;28;20231;-91
2023/09/01 08:58:09;;;;;;;0.00;0.00;;;19.00;99.90;;;;;;4147500;28;20587;-91
2023/09/01 09:00:10;;;;;;;0.10;0.10;;;19.00;99.90;;;;;;4147730;28;20172;-90
2023/09/01 09:02:11;;;;;;;0.17;0.00;;;19.00;99.90;;;;;;4147765;28;20200;-91
2023/09/01 09:04:12;;;;;;;0.20;0.00;;;19.10;99.90;;;;;;4147589;28;20578;-90
2023/09/01 09:06:13;;;;;;;0.00;0.00;;;19.20;99.90;;;;;;4147762;28;20173;-89
2023/09/01 09:08:15;;;;;;;0.08;0.08;;;19.10;99.90;;;;;;4147684;28;20212;-91
2023/09/01 09:10:16;;;;;;;0.17;0.00;;;19.00;99.90;;;;;;4147536;28;20173;-90
2023/09/01 09:12:18;;;;;;;0.00;0.00;;;19.10;99.90;;;;;;4131080;28;20194;-90
2023/09/01 09:14:18;;;;;;;0.00;0.00;;;18.90;99.90;;;;;;4131254;28;20240;-90
2023/09/01 09:16:20;;;;;;;0.00;0.00;;;19.10;99.90;;;;;;4147435;28;20238;-92
2023/09/01 09:18:30;;;;;;;0.15;0.05;;;19.10;99.90;;;;;;4147533;28;20260;-90
2023/09/01 09:20:38;;;;;;;0.28;0.10;;;19.20;99.90;;;;;;4147299;28;20184;-89
2023/09/01 09:22:59;;;;;;;0.03;0.00;;;19.30;99.90;;;;;;4147674;28;20200;-91
2023/09/01 09:24:59;;;;;;;0.00;0.00;;;19.20;99.90;;;;;;4147388;28;20169;-89
2023/09/01 09:27:00;;;;;;;0.00;0.00;;;19.10;99.90;;;;;;4130685;28;20591;-91
2023/09/01 09:29:11;;;;;;;0.43;0.03;;;19.40;99.90;;;;;;4147131;28;20591;-91
2023/09/01 09:31:12;;;;;;;0.05;0.05;;;19.60;99.90;;;;;;4147705;28;20211;-91
2023/09/01 09:33:13;;;;;;;0.10;0.10;;;19.80;99.90;;;;;;4150839;28;20209;-92
2023/09/01 09:35:15;;;;;;;0.25;0.00;;;20.20;99.90;;;;;;4134219;28;20702;-89
2023/09/01 09:37:16;;;;;;;0.00;0.00;;;20.20;99.90;;;;;;4134474;28;20180;-90
2023/09/01 09:39:22;;;;;;;0.00;0.00;;;20.30;99.90;;;;;;4150660;28;20631;-90
2023/09/01 09:41:22;;;;;;;0.10;0.10;;;20.30;99.90;;;;;;4150101;28;20181;-90
2023/09/01 09:43:24;;;;;;;0.10;0.00;;;20.20;99.90;;;;;;4150587;28;20184;-90
2023/09/01 09:45:32;;;;;;;0.00;0.00;;;20.20;99.90;;;;;;4150129;28;20235;-91
2023/09/01 09:47:33;;;;;;;0.03;0.03;;;20.30;99.90;;;;;;4150594;28;20204;-91
2023/09/01 09:49:35;;;;;;;0.10;0.10;;;20.50;99.90;;;;;;4150382;28;20293;-90
2023/09/01 09:51:38;;;;;;;0.10;0.00;;;20.70;99.90;;;;;;4150044;28;20169;-90
2023/09/01 09:53:39;;;;;;;0.00;0.00;;;20.70;99.90;;;;;;4150578;28;20169;-90
2023/09/01 09:55:45;;;;;;;0.00;0.00;;;20.80;99.90;;;;;;4150614;28;20698;-89
2023/09/01 09:57:49;;;;;;;0.20;0.10;;;21.20;99.90;;;;;;4150178;28;20255;-91
2023/09/01 10:00:02;;;;;;;0.25;0.10;;;21.40;99.90;;;;;;4150512;28;20215;-91
2023/09/01 10:02:15;;;;;;;0.40;0.10;;;21.30;99.90;;;;;;4150324;28;20196;-90
2023/09/01 10:04:17;;;;;;;0.45;0.20;;;21.60;99.90;;;;;;4134003;28;20178;-90
2023/09/01 10:06:19;;;;;;;0.20;0.20;;;21.60;99.90;;;;;;4150221;28;20268;-91
2023/09/01 10:08:21;;;;;;;0.32;0.13;;;22.00;99.90;;;;;;4150078;28;20286;-92
2023/09/01 10:10:22;;;;;;;0.32;0.20;;;21.70;99.90;;;;;;4166639;28;20168;-89
2023/09/01 10:12:26;;;;;;;0.20;0.20;;;21.80;99.90;;;;;;4149854;28;20220;-90
2023/09/01 10:14:29;;;;;;;0.30;0.20;;;22.00;99.90;;;;;;4150195;28;20200;-90
2023/09/01 10:16:30;;;;;;;0.30;0.28;;;22.10;99.90;;;;;;4149948;28;20303;-92
2023/09/01 10:18:33;;;;;;;0.10;0.10;;;22.40;99.90;;;;;;4149986;28;20204;-90
2023/09/01 10:20:44;;;;;;;0.43;0.20;;;22.10;99.90;;;;;;4149978;28;20276;-89
2023/09/01 10:22:45;;;;;;;0.73;0.10;;;22.10;99.90;;;;;;4149707;28;20188;-90
2023/09/01 10:25:12;;;;;;;0.25;0.13;;;22.10;99.90;;;;;;4149797;28;20721;-91
2023/09/01 10:27:13;;;;;;;0.20;0.20;;;22.30;99.90;;;;;;4149681;28;20225;-90
2023/09/01 10:29:31;;;;;;;0.10;0.10;;;22.30;99.90;;;;;;4149490;28;20173;-91
2023/09/01 10:31:33;;;;;;;0.10;0.03;;;22.60;99.90;;;;;;4149795;28;20168;-91
2023/09/01 10:33:34;;;;;;;0.00;0.00;;;22.80;99.90;;;;;;4149993;28;20260;-90
2023/09/01 10:35:40;;;;;;;0.20;0.10;;;23.00;99.90;;;;;;4149582;28;20627;-90
2023/09/01 10:37:41;;;;;;;0.35;0.00;;;23.20;99.90;;;;;;4149789;28;20173;-90